Time;durP1;ratioP1;P1;durP2;ratioP2;P2;SDS_P1;SDS_P2;PMS_P1;PMS_P2;Temp;Humidity;BMP_temperature;BMP_pressure;BME280_temperature;BME280_humidity;BME280_pressure;Samples;Min_cycle;Max_cycle;Signal;HPM_P1;HPM_P2
2021/07/27 00:00:06;;;;;;;8.93;4.68;;;20.40;99.90;;;;;;5065300;28;20021;-72
2021/07/27 00:02:32;;;;;;;6.95;4.57;;;20.40;99.90;;;;;;5065579;28;20044;-73
2021/07/27 00:04:57;;;;;;;7.07;3.88;;;20.30;99.90;;;;;;5065324;28;20029;-73
2021/07/27 00:07:23;;;;;;;5.25;3.75;;;20.30;99.90;;;;;;5063847;28;20029;-72
2021/07/27 00:09:49;;;;;;;7.22;3.92;;;20.30;99.90;;;;;;5063781;28;20021;-72
2021/07/27 00:12:14;;;;;;;16.40;3.60;;;20.30;99.90;;;;;;5063693;28;20029;-71
2021/07/27 00:14:40;;;;;;;6.53;4.00;;;20.20;99.90;;;;;;5064892;28;20049;-73
2021/07/27 00:17:05;;;;;;;7.50;4.00;;;20.20;99.90;;;;;;5063779;28;20029;-72
2021/07/27 00:19:31;;;;;;;7.35;3.72;;;20.20;99.90;;;;;;5063830;28;20083;-74
2021/07/27 00:21:57;;;;;;;7.93;3.63;;;20.20;99.90;;;;;;5064969;28;20132;-73
2021/07/27 00:24:26;;;;;;;7.75;3.97;;;20.20;99.90;;;;;;5064961;28;20032;-73
2021/07/27 00:26:54;;;;;;;9.35;4.40;;;20.20;99.90;;;;;;5063260;28;20063;-75
2021/07/27 00:29:23;;;;;;;7.07;4.00;;;20.20;99.90;;;;;;5063500;28;20170;-75
2021/07/27 00:31:49;;;;;;;6.30;4.28;;;20.20;99.90;;;;;;5063334;28;20036;-73
2021/07/27 00:34:15;;;;;;;5.85;3.78;;;20.20;99.90;;;;;;5064756;28;20021;-76
2021/07/27 00:36:40;;;;;;;6.03;3.85;;;20.20;99.90;;;;;;5064988;28;20060;-74
2021/07/27 00:39:06;;;;;;;6.70;4.07;;;20.20;99.90;;;;;;5064808;28;20040;-75
2021/07/27 00:41:31;;;;;;;4.80;3.50;;;20.20;99.90;;;;;;5063458;28;20104;-72
2021/07/27 00:44:01;;;;;;;6.07;3.72;;;20.10;99.90;;;;;;5064678;28;20041;-74
2021/07/27 00:46:26;;;;;;;9.15;3.47;;;20.10;99.90;;;;;;5064691;28;20041;-72
2021/07/27 00:48:52;;;;;;;5.22;3.30;;;20.10;99.90;;;;;;5064660;28;20086;-73
2021/07/27 00:51:18;;;;;;;7.15;3.22;;;20.10;99.90;;;;;;5063126;28;20068;-73
2021/07/27 00:53:44;;;;;;;4.45;3.08;;;20.10;99.90;;;;;;5064551;28;20029;-73
2021/07/27 00:56:09;;;;;;;7.03;3.53;;;20.10;99.90;;;;;;5064590;28;20021;-73
2021/07/27 00:58:35;;;;;;;5.60;3.60;;;20.10;99.90;;;;;;5062938;28;20017;-74
2021/07/27 01:01:01;;;;;;;5.57;3.03;;;20.00;99.90;;;;;;5064313;28;20036;-72
2021/07/27 01:03:26;;;;;;;6.30;3.53;;;20.00;99.90;;;;;;5064486;28;20059;-73
2021/07/27 01:05:52;;;;;;;4.82;3.05;;;20.00;99.90;;;;;;5064351;28;20097;-74
2021/07/27 01:08:17;;;;;;;6.47;3.35;;;20.00;99.90;;;;;;5064223;28;20105;-72
2021/07/27 01:10:46;;;;;;;5.82;3.25;;;20.00;99.90;;;;;;5063930;28;20029;-72
2021/07/27 01:13:11;;;;;;;5.53;3.42;;;19.90;99.90;;;;;;5079597;28;20021;-76
2021/07/27 01:15:37;;;;;;;7.55;3.17;;;20.00;99.90;;;;;;5064034;28;20094;-72
2021/07/27 01:18:06;;;;;;;8.23;3.53;;;20.00;99.90;;;;;;5063181;28;20036;-74
2021/07/27 01:20:45;;;;;;;5.03;3.10;;;20.00;99.90;;;;;;5062872;28;20056;-72
2021/07/27 01:39:38;;;;;;;6.45;2.50;;;19.90;99.90;;;;;;5064208;28;20096;-72
2021/07/27 01:42:13;;;;;;;5.35;3.05;;;19.90;99.90;;;;;;5064229;28;20037;-74
2021/07/27 01:44:44;;;;;;;5.43;2.72;;;19.80;99.90;;;;;;5064038;28;20029;-74
2021/07/27 01:47:14;;;;;;;4.85;2.78;;;19.80;99.90;;;;;;5063997;28;20024;-73
2021/07/27 01:49:41;;;;;;;5.00;2.60;;;19.80;99.90;;;;;;5064890;28;20466;-74
2021/07/27 01:52:10;;;;;;;9.90;3.22;;;19.80;99.90;;;;;;5068000;28;20074;-74
2021/07/27 01:54:45;;;;;;;6.07;3.30;;;19.80;99.90;;;;;;5066580;28;20033;-73
2021/07/27 01:57:12;;;;;;;4.53;2.72;;;19.80;99.90;;;;;;5066630;28;20086;-73
2021/07/27 01:59:38;;;;;;;3.95;2.55;;;19.70;99.90;;;;;;5067716;28;20029;-73
2021/07/27 02:02:05;;;;;;;5.30;2.78;;;19.70;99.90;;;;;;5066317;28;20401;-74
2021/07/27 02:04:31;;;;;;;6.40;3.45;;;19.70;99.90;;;;;;5067621;28;20028;-73
2021/07/27 02:06:57;;;;;;;5.30;2.92;;;19.70;99.90;;;;;;5067502;28;20028;-73
2021/07/27 02:09:23;;;;;;;6.35;3.42;;;19.70;99.90;;;;;;5066167;28;20060;-70
2021/07/27 02:11:53;;;;;;;10.98;3.40;;;19.60;99.90;;;;;;5067018;28;20025;-73
2021/07/27 02:14:19;;;;;;;10.48;3.42;;;19.60;99.90;;;;;;5067038;28;20108;-73
2021/07/27 02:16:45;;;;;;;7.43;3.28;;;19.60;99.90;;;;;;5067227;28;20024;-71
2021/07/27 02:19:10;;;;;;;14.40;3.72;;;19.60;99.90;;;;;;5067125;28;20029;-72
2021/07/27 02:21:36;;;;;;;6.90;3.67;;;19.50;99.90;;;;;;5065974;28;20037;-72
2021/07/27 02:24:03;;;;;;;5.30;2.90;;;19.50;99.90;;;;;;5067255;28;20033;-74
2021/07/27 02:26:28;;;;;;;5.95;2.85;;;19.50;99.90;;;;;;5067156;28;20402;-72
2021/07/27 02:28:54;;;;;;;5.50;3.50;;;19.50;99.90;;;;;;5067029;28;20036;-71
2021/07/27 02:31:31;;;;;;;6.82;3.60;;;19.40;99.90;;;;;;5066871;28;20385;-72
2021/07/27 02:33:57;;;;;;;7.38;3.95;;;19.40;99.90;;;;;;5067247;28;20029;-74
2021/07/27 02:36:23;;;;;;;7.22;4.03;;;19.30;99.90;;;;;;5066996;28;20107;-70
2021/07/27 02:38:48;;;;;;;11.40;3.88;;;19.30;99.90;;;;;;5065678;28;20092;-72
2021/07/27 02:41:14;;;;;;;12.07;3.80;;;19.30;99.90;;;;;;5066773;28;20033;-72
2021/07/27 02:43:40;;;;;;;6.15;3.40;;;19.30;99.90;;;;;;5066795;28;20028;-72
2021/07/27 02:46:05;;;;;;;5.38;3.50;;;19.30;99.90;;;;;;5065621;28;20021;-72
2021/07/27 02:48:34;;;;;;;15.35;4.20;;;19.20;99.90;;;;;;5066862;28;20029;-73
2021/07/27 02:51:01;;;;;;;9.20;3.95;;;19.10;99.90;;;;;;5066804;28;20037;-71
2021/07/27 02:53:30;;;;;;;9.68;5.18;;;19.10;99.90;;;;;;5066854;28;20105;-72
2021/07/27 02:56:00;;;;;;;6.75;3.97;;;19.10;99.90;;;;;;5066637;28;20084;-74
2021/07/27 02:58:25;;;;;;;6.75;4.18;;;19.10;99.90;;;;;;5066447;28;20482;-71
2021/07/27 03:00:51;;;;;;;6.78;4.28;;;19.10;99.90;;;;;;5065582;28;20064;-72
2021/07/27 03:03:16;;;;;;;8.75;4.57;;;19.10;99.90;;;;;;5064816;28;20029;-75
2021/07/27 03:05:42;;;;;;;10.88;5.10;;;19.10;99.90;;;;;;5066415;28;20056;-75
2021/07/27 03:08:11;;;;;;;11.70;5.53;;;19.00;99.90;;;;;;5066493;28;20025;-69
2021/07/27 03:10:37;;;;;;;10.90;5.63;;;19.00;99.90;;;;;;5066219;28;20025;-72
2021/07/27 03:13:02;;;;;;;13.65;5.32;;;19.00;99.90;;;;;;5064881;28;20052;-72
2021/07/27 03:15:31;;;;;;;14.48;5.38;;;18.90;99.90;;;;;;5066137;28;20041;-73
2021/07/27 03:17:59;;;;;;;9.98;5.70;;;19.00;99.90;;;;;;5064856;28;20027;-72
2021/07/27 03:20:27;;;;;;;10.23;5.60;;;18.90;99.90;;;;;;5066120;28;20052;-73
2021/07/27 03:22:55;;;;;;;12.90;5.68;;;18.90;99.90;;;;;;5066042;28;20028;-73
2021/07/27 03:25:21;;;;;;;11.40;5.75;;;18.90;99.90;;;;;;5065904;28;20036;-73
2021/07/27 03:27:49;;;;;;;18.75;7.82;;;18.90;99.90;;;;;;5066046;28;20045;-73
2021/07/27 03:30:20;;;;;;;15.32;7.15;;;18.90;99.90;;;;;;5064508;28;20025;-70
2021/07/27 03:32:47;;;;;;;15.63;7.35;;;18.90;99.90;;;;;;5065820;28;20044;-72
2021/07/27 03:35:19;;;;;;;14.90;6.70;;;18.90;99.90;;;;;;5065821;28;20070;-74
2021/07/27 03:37:45;;;;;;;11.20;5.88;;;18.80;99.90;;;;;;5065751;28;20025;-71
2021/07/27 03:40:11;;;;;;;9.80;6.30;;;18.80;99.90;;;;;;5065716;28;20090;-75
2021/07/27 03:42:37;;;;;;;11.73;6.38;;;18.80;99.90;;;;;;5065761;28;20059;-72
2021/07/27 03:45:03;;;;;;;11.45;6.57;;;18.80;99.90;;;;;;5065464;28;20051;-73
2021/07/27 03:47:29;;;;;;;15.30;6.10;;;18.80;99.90;;;;;;5081162;28;20509;-74
2021/07/27 03:49:54;;;;;;;13.45;6.25;;;18.80;99.90;;;;;;5065540;28;20111;-72
2021/07/27 03:52:20;;;;;;;13.73;5.95;;;18.80;99.90;;;;;;5065242;28;20099;-72
2021/07/27 03:54:46;;;;;;;17.15;7.10;;;18.80;99.90;;;;;;5065378;28;20025;-71
2021/07/27 03:57:11;;;;;;;13.18;6.78;;;18.80;99.90;;;;;;5080725;28;20036;-75
2021/07/27 03:59:37;;;;;;;13.80;7.10;;;18.80;99.90;;;;;;5065305;28;20048;-74
2021/07/27 04:02:03;;;;;;;12.75;6.43;;;18.80;99.90;;;;;;5065203;28;20552;-74
2021/07/27 04:04:33;;;;;;;13.35;6.53;;;18.80;99.90;;;;;;5064162;28;20032;-73
2021/07/27 04:06:59;;;;;;;17.10;6.15;;;18.80;99.90;;;;;;5065500;28;20025;-73
2021/07/27 04:09:25;;;;;;;11.75;6.22;;;18.80;99.90;;;;;;5065495;28;20039;-73
2021/07/27 04:11:51;;;;;;;14.43;6.80;;;18.80;99.90;;;;;;5063701;28;20369;-74
2021/07/27 04:14:16;;;;;;;12.35;7.13;;;18.80;99.90;;;;;;5063462;28;20045;-70
2021/07/27 04:16:42;;;;;;;18.92;7.55;;;18.90;99.90;;;;;;5064762;28;20090;-73
2021/07/27 04:19:08;;;;;;;14.77;7.53;;;18.80;99.90;;;;;;5065069;28;20101;-73
2021/07/27 04:21:34;;;;;;;13.73;6.45;;;18.80;99.90;;;;;;5065122;28;20086;-72
2021/07/27 04:24:01;;;;;;;15.10;6.88;;;18.80;99.90;;;;;;5065013;28;20044;-75
2021/07/27 04:26:30;;;;;;;20.10;6.55;;;18.90;99.90;;;;;;5064990;28;20113;-75
2021/07/27 04:28:56;;;;;;;16.40;7.20;;;18.90;99.90;;;;;;5063404;28;20082;-72
2021/07/27 04:31:23;;;;;;;17.20;7.20;;;18.80;99.90;;;;;;5064788;28;20470;-75
2021/07/27 04:33:48;;;;;;;16.17;7.35;;;18.80;99.90;;;;;;5064718;28;20531;-73
2021/07/27 04:36:14;;;;;;;21.17;8.40;;;18.80;99.90;;;;;;5064802;28;20052;-73
2021/07/27 04:38:40;;;;;;;20.65;8.23;;;18.90;99.90;;;;;;5064610;28;20078;-72
2021/07/27 04:41:07;;;;;;;15.30;7.93;;;18.80;99.90;;;;;;5064726;28;20036;-73
2021/07/27 04:43:34;;;;;;;21.05;8.38;;;18.80;99.90;;;;;;5064765;28;20053;-73
2021/07/27 04:46:00;;;;;;;17.90;7.32;;;18.90;99.90;;;;;;5080176;28;20021;-76
2021/07/27 04:48:26;;;;;;;18.13;7.95;;;18.90;99.90;;;;;;5064378;28;20033;-73
2021/07/27 04:50:51;;;;;;;17.52;7.47;;;18.80;99.90;;;;;;5064403;28;20032;-71
2021/07/27 04:53:22;;;;;;;15.48;8.35;;;18.90;99.90;;;;;;5064387;28;20029;-72
2021/07/27 04:55:49;;;;;;;15.48;6.95;;;18.90;99.90;;;;;;5064590;28;20021;-72
2021/07/27 04:58:15;;;;;;;16.42;8.52;;;19.00;99.90;;;;;;5064492;28;20036;-72
2021/07/27 05:00:40;;;;;;;24.48;8.27;;;18.90;99.90;;;;;;5063009;28;20025;-75
2021/07/27 05:03:06;;;;;;;18.75;8.23;;;19.00;99.90;;;;;;5064601;28;20044;-74
2021/07/27 05:05:32;;;;;;;18.38;8.02;;;18.90;99.90;;;;;;5064547;28;20044;-74
2021/07/27 05:08:02;;;;;;;17.45;7.50;;;18.90;99.90;;;;;;5064571;28;20119;-75
2021/07/27 05:10:28;;;;;;;22.08;8.50;;;18.90;99.90;;;;;;5064402;28;20080;-73
2021/07/27 05:12:53;;;;;;;18.08;8.43;;;18.90;99.90;;;;;;5064335;28;20090;-73
2021/07/27 05:15:19;;;;;;;15.85;7.93;;;18.90;99.90;;;;;;5063936;28;20485;-73
2021/07/27 05:17:45;;;;;;;30.52;9.00;;;18.90;99.90;;;;;;5064270;28;20032;-72
2021/07/27 05:20:12;;;;;;;16.98;8.05;;;18.90;99.90;;;;;;5064176;28;20033;-74
2021/07/27 05:22:38;;;;;;;20.25;8.65;;;18.90;99.90;;;;;;5063119;28;20029;-72
2021/07/27 05:25:04;;;;;;;24.45;9.25;;;18.90;99.90;;;;;;5047092;28;20060;-71
2021/07/27 05:27:35;;;;;;;19.98;8.98;;;18.90;99.90;;;;;;5052479;28;20100;-73
2021/07/27 05:30:01;;;;;;;12.85;7.13;;;18.90;99.90;;;;;;5053615;28;20040;-71
2021/07/27 05:32:27;;;;;;;20.90;8.88;;;19.00;99.90;;;;;;5068136;28;20025;-73
2021/07/27 05:34:53;;;;;;;34.90;10.65;;;19.00;99.90;;;;;;5056945;28;20036;-73
2021/07/27 05:37:19;;;;;;;22.17;9.10;;;18.90;99.90;;;;;;5060222;28;20056;-75
2021/07/27 05:39:45;;;;;;;19.33;9.88;;;19.00;99.90;;;;;;5068005;28;20064;-75
2021/07/27 05:42:11;;;;;;;22.27;9.38;;;19.00;99.90;;;;;;5068229;28;20041;-69
2021/07/27 05:44:37;;;;;;;25.20;9.85;;;19.10;99.90;;;;;;5068454;28;20039;-74
2021/07/27 05:47:03;;;;;;;21.98;10.05;;;19.10;99.90;;;;;;5066452;28;20088;-71
2021/07/27 05:49:30;;;;;;;25.17;10.35;;;19.20;99.90;;;;;;5057613;28;20560;-71
2021/07/27 05:51:56;;;;;;;19.83;10.18;;;19.20;99.90;;;;;;5059483;28;20032;-71
2021/07/27 05:54:23;;;;;;;21.15;9.88;;;19.20;99.90;;;;;;5049372;28;20025;-70
2021/07/27 05:56:49;;;;;;;26.70;10.27;;;19.20;99.90;;;;;;5046463;28;20029;-73
2021/07/27 05:59:16;;;;;;;22.65;10.05;;;19.30;99.90;;;;;;5047655;28;20026;-72
2021/07/27 06:01:42;;;;;;;28.10;10.30;;;19.30;99.90;;;;;;5047453;28;20046;-70
2021/07/27 06:04:09;;;;;;;24.63;10.40;;;19.40;99.90;;;;;;5047837;28;20053;-73
2021/07/27 06:06:35;;;;;;;24.45;10.18;;;19.40;99.90;;;;;;5047824;28;20081;-72
2021/07/27 06:09:03;;;;;;;21.13;10.77;;;19.40;99.90;;;;;;5047885;28;20053;-73
2021/07/27 06:11:30;;;;;;;21.98;9.88;;;19.50;99.90;;;;;;5047741;28;20033;-73
2021/07/27 06:13:56;;;;;;;19.88;10.77;;;19.40;99.90;;;;;;5047249;28;20087;-73
2021/07/27 06:16:22;;;;;;;18.50;9.35;;;19.40;99.90;;;;;;5046414;28;20033;-74
2021/07/27 06:18:48;;;;;;;35.72;10.02;;;19.30;99.90;;;;;;5046281;28;20025;-72
2021/07/27 06:21:14;;;;;;;24.48;9.68;;;19.40;99.90;;;;;;5047771;28;20112;-72
2021/07/27 06:23:39;;;;;;;19.80;9.82;;;19.40;99.90;;;;;;5046147;28;20021;-72
2021/07/27 06:26:05;;;;;;;19.23;9.68;;;19.40;99.90;;;;;;5046366;28;20048;-69
2021/07/27 06:28:32;;;;;;;20.42;9.90;;;19.50;99.90;;;;;;5047159;28;20152;-71
2021/07/27 06:30:57;;;;;;;22.92;9.57;;;19.50;99.90;;;;;;5045897;28;20059;-74
2021/07/27 06:33:23;;;;;;;21.25;10.10;;;19.50;99.90;;;;;;5045821;28;20028;-72
2021/07/27 06:35:48;;;;;;;19.50;9.60;;;19.50;99.90;;;;;;5046911;28;20025;-71
2021/07/27 06:38:14;;;;;;;23.58;9.48;;;19.50;99.90;;;;;;5046894;28;20032;-71
2021/07/27 06:40:39;;;;;;;22.70;10.70;;;19.50;99.90;;;;;;5046921;28;20052;-73
2021/07/27 06:43:05;;;;;;;23.20;10.00;;;19.50;99.90;;;;;;5047061;28;20021;-71
2021/07/27 06:45:31;;;;;;;23.17;9.40;;;19.50;99.90;;;;;;5047158;28;20063;-72
2021/07/27 06:47:56;;;;;;;22.05;10.10;;;19.50;99.90;;;;;;5047009;28;20098;-72
2021/07/27 06:50:22;;;;;;;25.33;10.05;;;19.50;99.90;;;;;;5045623;28;20029;-77
2021/07/27 06:52:48;;;;;;;16.67;9.30;;;19.50;99.90;;;;;;5046474;28;20033;-73
2021/07/27 06:55:17;;;;;;;24.52;10.02;;;19.60;99.90;;;;;;5045406;28;20026;-71
2021/07/27 06:57:43;;;;;;;21.42;9.55;;;19.60;99.90;;;;;;5046701;28;20029;-75
2021/07/27 07:00:09;;;;;;;22.33;9.25;;;19.60;99.90;;;;;;5046582;28;20031;-74
2021/07/27 07:02:35;;;;;;;20.23;9.10;;;19.60;99.90;;;;;;5046751;28;20112;-71
2021/07/27 07:05:00;;;;;;;22.23;8.60;;;19.60;99.90;;;;;;5046472;28;20095;-74
2021/07/27 07:07:26;;;;;;;19.67;8.93;;;19.50;99.90;;;;;;5055138;28;20500;-73
2021/07/27 07:09:52;;;;;;;21.08;8.77;;;19.60;99.90;;;;;;5056223;28;20029;-71
2021/07/27 07:12:17;;;;;;;17.33;8.70;;;19.60;99.90;;;;;;5046168;28;20036;-74
2021/07/27 07:14:43;;;;;;;27.15;9.77;;;19.70;99.90;;;;;;5044992;28;20095;-72
2021/07/27 07:17:11;;;;;;;22.27;8.63;;;19.80;99.90;;;;;;5046581;28;20092;-75
2021/07/27 07:19:37;;;;;;;15.65;7.63;;;19.80;99.90;;;;;;5046348;28;20035;-73
2021/07/27 07:22:03;;;;;;;16.35;8.05;;;19.90;99.90;;;;;;5045158;28;20033;-73
2021/07/27 07:24:29;;;;;;;28.70;8.32;;;19.90;99.90;;;;;;5046370;28;20040;-74
2021/07/27 07:26:54;;;;;;;17.58;7.93;;;20.00;99.90;;;;;;5044725;28;20030;-70
2021/07/27 07:29:20;;;;;;;17.77;7.47;;;20.10;99.90;;;;;;5046071;28;20021;-71
2021/07/27 07:31:45;;;;;;;15.52;7.28;;;20.10;99.90;;;;;;5045866;28;20033;-74
2021/07/27 07:34:13;;;;;;;18.65;7.60;;;20.10;99.90;;;;;;5044701;28;20045;-71
2021/07/27 07:36:38;;;;;;;15.77;8.13;;;20.10;99.90;;;;;;5046314;28;20051;-70
2021/07/27 07:39:04;;;;;;;27.77;8.07;;;20.10;99.90;;;;;;5049482;28;20029;-75
2021/07/27 07:41:29;;;;;;;14.40;7.80;;;20.00;99.90;;;;;;5051507;28;20694;-73
2021/07/27 07:43:55;;;;;;;15.40;6.60;;;20.00;99.90;;;;;;5055368;28;20029;-73
2021/07/27 07:46:20;;;;;;;12.70;6.65;;;20.10;99.90;;;;;;5065709;28;20029;-72
2021/07/27 07:48:46;;;;;;;11.00;6.45;;;20.10;99.90;;;;;;5057913;28;20041;-72
2021/07/27 07:51:12;;;;;;;13.90;7.30;;;20.10;99.90;;;;;;5060860;28;20028;-72
2021/07/27 07:53:37;;;;;;;15.50;7.55;;;20.20;99.90;;;;;;5048059;28;20029;-74
2021/07/27 07:56:08;;;;;;;11.25;6.68;;;20.20;99.90;;;;;;5045741;28;20052;-73
2021/07/27 07:58:34;;;;;;;16.10;7.57;;;20.20;99.90;;;;;;5050711;28;20029;-70
2021/07/27 08:00:59;;;;;;;16.30;7.25;;;20.30;99.90;;;;;;5059268;28;20041;-70
2021/07/27 08:03:25;;;;;;;18.85;7.25;;;20.40;99.90;;;;;;5057811;28;20048;-72
2021/07/27 08:05:51;;;;;;;19.23;7.85;;;20.40;99.90;;;;;;5044544;28;20035;-71
2021/07/27 08:08:19;;;;;;;15.73;7.00;;;20.40;99.90;;;;;;5045007;28;20029;-73
2021/07/27 08:10:45;;;;;;;15.55;7.22;;;20.40;99.90;;;;;;5043224;28;20030;-72
2021/07/27 08:13:11;;;;;;;13.70;7.78;;;20.40;99.90;;;;;;5044656;28;20105;-72
2021/07/27 08:15:37;;;;;;;20.88;8.52;;;20.40;99.90;;;;;;5044587;28;20099;-69
2021/07/27 08:18:02;;;;;;;17.52;8.00;;;20.50;99.90;;;;;;5044913;28;20021;-72
2021/07/27 08:20:29;;;;;;;24.23;9.05;;;20.50;99.90;;;;;;5044712;28;20064;-76
2021/07/27 08:22:58;;;;;;;16.77;7.78;;;20.50;99.90;;;;;;5044426;28;20037;-72
2021/07/27 08:25:24;;;;;;;17.55;7.90;;;20.50;99.90;;;;;;5044650;28;20029;-71
2021/07/27 08:27:50;;;;;;;19.17;8.00;;;20.50;99.90;;;;;;5043613;28;20156;-72
2021/07/27 08:30:18;;;;;;;16.52;8.98;;;20.40;99.90;;;;;;5044357;28;20064;-74
2021/07/27 08:32:51;;;;;;;15.00;7.63;;;20.40;99.90;;;;;;5043443;28;20482;-71
2021/07/27 08:35:18;;;;;;;15.70;7.35;;;20.40;99.90;;;;;;5045420;28;20044;-73
2021/07/27 08:37:44;;;;;;;20.80;8.85;;;20.50;99.90;;;;;;5044946;28;20053;-71
2021/07/27 08:40:10;;;;;;;19.85;8.18;;;20.60;99.90;;;;;;5044948;28;20033;-72
2021/07/27 08:42:41;;;;;;;15.82;7.85;;;20.70;99.90;;;;;;5044800;28;20053;-73
2021/07/27 08:45:08;;;;;;;12.25;6.78;;;20.80;99.90;;;;;;5048015;28;20044;-72
2021/07/27 08:47:35;;;;;;;29.30;9.52;;;20.70;99.90;;;;;;5050148;28;20029;-75
2021/07/27 08:50:05;;;;;;;18.05;7.60;;;20.60;99.90;;;;;;5061531;28;20051;-74
2021/07/27 08:52:31;;;;;;;22.13;8.98;;;20.50;99.90;;;;;;5051092;28;20037;-73
2021/07/27 08:54:56;;;;;;;16.92;9.23;;;20.50;99.90;;;;;;5044481;28;20029;-73
2021/07/27 08:57:22;;;;;;;22.00;9.82;;;20.50;99.90;;;;;;5044710;28;20478;-74
2021/07/27 08:59:48;;;;;;;20.52;8.55;;;20.40;99.90;;;;;;5043222;28;20048;-73
2021/07/27 09:02:14;;;;;;;15.32;8.02;;;20.40;99.90;;;;;;5053490;28;20044;-70
2021/07/27 09:04:39;;;;;;;17.40;8.82;;;20.30;99.90;;;;;;5062260;28;20021;-69
2021/07/27 09:07:06;;;;;;;22.58;8.00;;;20.30;99.90;;;;;;5064065;28;20033;-72
2021/07/27 09:09:35;;;;;;;18.45;9.07;;;20.30;99.90;;;;;;5053239;28;20033;-72
2021/07/27 09:12:11;;;;;;;18.20;8.07;;;20.30;99.90;;;;;;5044454;28;20037;-72
2021/07/27 09:14:44;;;;;;;17.95;8.90;;;20.40;99.90;;;;;;5049234;28;20052;-72
2021/07/27 09:17:09;;;;;;;16.33;8.73;;;20.40;99.90;;;;;;5064272;28;20028;-73
2021/07/27 09:19:40;;;;;;;26.25;10.25;;;20.50;99.90;;;;;;5064633;28;20025;-71
2021/07/27 09:22:06;;;;;;;21.45;9.05;;;20.60;99.90;;;;;;5064428;28;20041;-71
2021/07/27 09:24:33;;;;;;;15.82;8.43;;;20.70;99.90;;;;;;5063238;28;20167;-73
2021/07/27 09:27:08;;;;;;;18.27;8.52;;;20.80;99.90;;;;;;5063138;28;20469;-75
2021/07/27 09:29:47;;;;;;;21.17;8.50;;;20.90;99.90;;;;;;5062620;28;20036;-72
2021/07/27 09:32:20;;;;;;;16.15;7.82;;;20.90;99.90;;;;;;5063928;28;20051;-71
2021/07/27 09:34:47;;;;;;;21.92;9.00;;;21.00;99.90;;;;;;5062995;28;20033;-70
2021/07/27 09:37:13;;;;;;;23.58;8.35;;;21.00;99.90;;;;;;5064242;28;20025;-75
2021/07/27 09:39:39;;;;;;;22.17;9.07;;;21.00;99.90;;;;;;5045332;28;20060;-71
2021/07/27 09:42:08;;;;;;;16.42;8.20;;;21.00;99.90;;;;;;5043914;28;20037;-74
2021/07/27 09:44:39;;;;;;;14.05;8.13;;;21.10;99.90;;;;;;5044324;28;20029;-71
2021/07/27 09:47:06;;;;;;;18.55;9.00;;;21.10;99.90;;;;;;5044579;28;20029;-73
2021/07/27 09:49:32;;;;;;;13.70;8.07;;;21.10;99.90;;;;;;5043297;28;20030;-72
2021/07/27 09:51:58;;;;;;;13.18;7.50;;;21.20;99.90;;;;;;5044099;28;20025;-73
2021/07/27 09:54:25;;;;;;;18.80;8.50;;;21.40;99.90;;;;;;5044379;28;20029;-71
2021/07/27 09:56:52;;;;;;;16.80;7.90;;;21.60;99.90;;;;;;5044117;28;20018;-72
2021/07/27 09:59:19;;;;;;;18.92;8.45;;;21.90;99.90;;;;;;5042871;28;20025;-73
2021/07/27 10:01:57;;;;;;;17.42;8.02;;;22.10;99.90;;;;;;5044050;28;20041;-73
2021/07/27 10:04:26;;;;;;;17.35;8.75;;;22.30;99.90;;;;;;5044139;28;20040;-73
2021/07/27 10:06:52;;;;;;;20.38;7.78;;;22.50;99.90;;;;;;5060718;28;20030;-71
2021/07/27 10:09:26;;;;;;;22.45;7.90;;;22.50;99.90;;;;;;5050368;28;20065;-72
2021/07/27 10:11:52;;;;;;;17.55;8.30;;;22.50;99.90;;;;;;5065001;28;20029;-70
2021/07/27 10:14:19;;;;;;;17.45;8.80;;;22.40;99.90;;;;;;5047281;28;20046;-75
2021/07/27 10:16:45;;;;;;;16.50;8.57;;;22.40;99.90;;;;;;5047244;28;20477;-70
2021/07/27 10:19:22;;;;;;;17.13;8.60;;;22.50;99.90;;;;;;5047483;28;20025;-74
2021/07/27 10:22:00;;;;;;;14.55;7.65;;;22.70;99.90;;;;;;5047504;28;20038;-73
2021/07/27 10:24:54;;;;;;;12.30;6.88;;;22.80;99.90;;;;;;5046172;28;20390;-72
2021/07/27 10:27:29;;;;;;;16.52;8.00;;;22.80;99.90;;;;;;5046869;28;20037;-72
2021/07/27 10:30:04;;;;;;;;;;;22.90;99.90;;;;;;5063072;28;20041;-69
2021/07/27 10:32:29;;;;;;;20.55;6.90;;;23.00;99.90;;;;;;5047310;28;19905;-71
2021/07/27 10:34:55;;;;;;;13.25;6.07;;;23.20;99.90;;;;;;5046944;28;20037;-69
2021/07/27 10:37:21;;;;;;;11.40;6.00;;;23.30;99.90;;;;;;5045664;28;20022;-70
2021/07/27 10:39:59;;;;;;;14.00;6.60;;;23.40;99.90;;;;;;5046747;28;20028;-71
2021/07/27 10:42:37;;;;;;;13.48;6.10;;;23.60;99.90;;;;;;5046881;28;20037;-69
2021/07/27 10:45:03;;;;;;;10.38;5.38;;;23.90;99.90;;;;;;5047474;28;20025;-75
2021/07/27 10:47:28;;;;;;;7.78;5.10;;;23.90;99.90;;;;;;5047766;28;20025;-74
2021/07/27 10:50:06;;;;;;;9.80;5.68;;;23.90;99.90;;;;;;5047460;28;20412;-73
2021/07/27 10:52:32;;;;;;;11.10;5.53;;;23.70;99.90;;;;;;5046270;28;20040;-71
2021/07/27 10:54:58;;;;;;;9.95;5.07;;;23.60;99.90;;;;;;5047086;28;20041;-73
2021/07/27 10:57:35;;;;;;;15.68;6.13;;;23.50;99.90;;;;;;5046914;28;20414;-72
2021/07/27 11:00:07;;;;;;;15.32;6.88;;;23.70;99.90;;;;;;5057789;28;20028;-69
2021/07/27 11:02:32;;;;;;;10.98;5.82;;;24.00;99.90;;;;;;5082125;28;20037;-69
2021/07/27 11:04:58;;;;;;;16.55;6.65;;;24.10;99.90;;;;;;5066545;28;20055;-73
2021/07/27 11:07:25;;;;;;;13.68;6.32;;;24.20;99.90;;;;;;5065297;28;20024;-71
2021/07/27 11:09:55;;;;;;;13.95;5.53;;;24.20;99.90;;;;;;5066574;28;20025;-72
2021/07/27 11:12:31;;;;;;;9.88;5.40;;;24.30;99.90;;;;;;5066255;28;20110;-72
2021/07/27 11:15:03;;;;;;;9.70;5.95;;;24.30;99.90;;;;;;5064768;28;20080;-69
2021/07/27 11:17:29;;;;;;;13.77;5.90;;;24.50;99.90;;;;;;5066437;28;20025;-69
2021/07/27 11:19:54;;;;;;;15.88;5.53;;;24.70;99.90;;;;;;5066474;28;20033;-71
2021/07/27 11:22:20;;;;;;;14.55;6.60;;;24.70;99.90;;;;;;5080737;28;20086;-71
2021/07/27 11:24:47;;;;;;;12.23;5.90;;;24.80;99.90;;;;;;5066403;28;20058;-71
2021/07/27 11:27:13;;;;;;;7.20;4.75;;;24.90;99.90;;;;;;5066043;28;20025;-72
2021/07/27 11:29:39;;;;;;;13.32;6.30;;;25.10;99.90;;;;;;5066167;28;20100;-73
2021/07/27 11:32:11;;;;;;;14.85;5.43;;;25.30;99.90;;;;;;5066065;28;20029;-74
2021/07/27 11:34:37;;;;;;;15.30;5.45;;;25.40;99.90;;;;;;5066124;28;20029;-71
2021/07/27 11:37:03;;;;;;;9.32;5.10;;;25.60;99.90;;;;;;5066075;28;20149;-70
2021/07/27 11:39:39;;;;;;;11.32;6.30;;;25.80;99.90;;;;;;5066004;28;20028;-72
2021/07/27 11:42:04;;;;;;;10.80;6.13;;;25.70;99.90;;;;;;5066070;28;20037;-69
2021/07/27 11:44:30;;;;;;;9.18;5.45;;;25.60;99.90;;;;;;5066006;28;20051;-70
2021/07/27 11:46:56;;;;;;;10.85;5.47;;;25.50;99.90;;;;;;5064404;28;20029;-70
2021/07/27 11:49:22;;;;;;;9.05;6.00;;;25.20;99.90;;;;;;5065768;28;20032;-68
2021/07/27 11:51:48;;;;;;;15.35;6.50;;;25.00;99.90;;;;;;5065708;28;20048;-74
2021/07/27 11:54:24;;;;;;;12.60;6.15;;;25.10;99.90;;;;;;5081188;28;20025;-70
2021/07/27 11:56:50;;;;;;;14.70;5.90;;;25.20;99.90;;;;;;5065519;28;20025;-71
2021/07/27 11:59:24;;;;;;;12.38;5.35;;;25.30;99.90;;;;;;5080824;28;20032;-70
2021/07/27 12:01:50;;;;;;;;;;;25.40;99.90;;;;;;5065893;28;20041;-72
2021/07/27 12:04:15;;;;;;;10.52;5.72;;;25.50;99.90;;;;;;5064282;28;19950;-70
2021/07/27 12:06:48;;;;;;;10.00;5.15;;;25.30;99.90;;;;;;5065393;28;20518;-71
2021/07/27 12:09:14;;;;;;;9.50;5.18;;;25.20;99.90;;;;;;5065331;28;20037;-72
2021/07/27 12:11:41;;;;;;;9.50;5.00;;;25.10;99.90;;;;;;5063893;28;20029;-71
2021/07/27 12:14:07;;;;;;;7.47;4.47;;;25.10;99.90;;;;;;5065197;28;20048;-69
2021/07/27 12:16:33;;;;;;;15.18;4.97;;;25.00;99.90;;;;;;5065389;28;20035;-69
2021/07/27 12:18:58;;;;;;;8.63;5.22;;;25.00;99.90;;;;;;5065255;28;20037;-74
2021/07/27 12:21:24;;;;;;;10.40;5.15;;;25.30;99.90;;;;;;5063619;28;20412;-72
2021/07/27 12:23:49;;;;;;;10.52;4.82;;;25.70;99.90;;;;;;5064714;28;20020;-68
2021/07/27 12:26:15;;;;;;;12.85;5.22;;;26.00;99.90;;;;;;5064856;28;20031;-70
2021/07/27 12:28:41;;;;;;;9.88;4.95;;;26.40;99.90;;;;;;5065054;28;20028;-69
2021/07/27 12:31:06;;;;;;;9.70;4.20;;;26.60;99.90;;;;;;5063538;28;20025;-74
2021/07/27 12:33:32;;;;;;;9.43;4.30;;;26.60;99.90;;;;;;5064685;28;20037;-71
2021/07/27 12:35:59;;;;;;;7.13;4.38;;;26.70;99.90;;;;;;5063548;28;20029;-70
2021/07/27 12:38:25;;;;;;;7.55;4.30;;;26.90;99.90;;;;;;5064694;28;20025;-69
2021/07/27 12:40:50;;;;;;;6.20;3.53;;;27.10;99.90;;;;;;5064723;28;20347;-73
2021/07/27 12:43:16;;;;;;;5.28;3.38;;;27.30;99.90;;;;;;5063234;28;20083;-72
2021/07/27 12:45:43;;;;;;;6.47;3.47;;;27.50;99.90;;;;;;5064518;28;20085;-71
2021/07/27 12:48:09;;;;;;;5.07;2.78;;;27.50;99.90;;;;;;5064542;28;20465;-70
2021/07/27 12:50:35;;;;;;;8.18;3.60;;;27.60;99.90;;;;;;5064743;28;20055;-70
2021/07/27 12:53:01;;;;;;;6.30;3.20;;;27.60;99.90;;;;;;5064722;28;20029;-68
2021/07/27 12:55:26;;;;;;;4.95;2.90;;;27.60;99.90;;;;;;5064689;28;20107;-71